sensor_id;sensor_type;location;lat;lon;timestamp;temperature;humidity
41944;DHT22;27636;52.610;13.244;2022-12-07T00:02:45;2.90;99.90
41944;DHT22;27636;52.610;13.244;2022-12-07T00:07:50;2.70;99.90
41944;DHT22;27636;52.610;13.244;2022-12-07T00:12:54;2.70;99.90
41944;DHT22;27636;52.610;13.244;2022-12-07T00:17:57;2.70;99.90
41944;DHT22;27636;52.610;13.244;2022-12-07T00:23:02;2.60;99.90
41944;DHT22;27636;52.610;13.244;2022-12-07T00:28:05;2.60;99.90
41944;DHT22;27636;52.610;13.244;2022-12-07T00:33:10;2.50;99.90
41944;DHT22;27636;52.610;13.244;2022-12-07T00:38:14;2.50;99.90
41944;DHT22;27636;52.610;13.244;2022-12-07T00:43:18;2.40;99.90
41944;DHT22;27636;52.610;13.244;2022-12-07T00:48:21;2.20;99.90
41944;DHT22;27636;52.610;13.244;2022-12-07T00:53:27;2.00;99.90
41944;DHT22;27636;52.610;13.244;2022-12-07T00:58:30;1.80;99.90
41944;DHT22;27636;52.610;13.244;2022-12-07T01:03:34;1.80;99.90
41944;DHT22;27636;52.610;13.244;2022-12-07T01:08:39;1.90;99.90
41944;DHT22;27636;52.610;13.244;2022-12-07T01:13:44;2.00;99.90
41944;DHT22;27636;52.610;13.244;2022-12-07T01:18:49;2.00;99.90
41944;DHT22;27636;52.610;13.244;2022-12-07T01:23:54;2.10;99.90
41944;DHT22;27636;52.610;13.244;2022-12-07T01:28:59;2.10;99.90
41944;DHT22;27636;52.610;13.244;2022-12-07T01:34:04;1.90;99.90
41944;DHT22;27636;52.610;13.244;2022-12-07T01:39:09;1.90;99.90
41944;DHT22;27636;52.610;13.244;2022-12-07T01:44:20;1.90;99.90
41944;DHT22;27636;52.610;13.244;2022-12-07T01:49:31;1.90;99.90
41944;DHT22;27636;52.610;13.244;2022-12-07T01:54:37;1.80;99.90
41944;DHT22;27636;52.610;13.244;2022-12-07T04:21:52;2.10;99.90
41944;DHT22;27636;52.610;13.244;2022-12-07T04:26:55;2.10;99.90
41944;DHT22;27636;52.610;13.244;2022-12-07T04:31:59;2.00;99.90
41944;DHT22;27636;52.610;13.244;2022-12-07T04:37:03;2.10;99.90
41944;DHT22;27636;52.610;13.244;2022-12-07T04:42:06;2.10;99.90
41944;DHT22;27636;52.610;13.244;2022-12-07T04:47:10;2.10;99.90
41944;DHT22;27636;52.610;13.244;2022-12-07T04:52:15;2.20;99.90
41944;DHT22;27636;52.610;13.244;2022-12-07T04:57:18;2.30;99.90
41944;DHT22;27636;52.610;13.244;2022-12-07T05:02:22;2.30;99.90
41944;DHT22;27636;52.610;13.244;2022-12-07T05:07:27;2.50;99.90
41944;DHT22;27636;52.610;13.244;2022-12-07T05:12:30;2.50;99.90
41944;DHT22;27636;52.610;13.244;2022-12-07T05:17:33;2.60;99.90
41944;DHT22;27636;52.610;13.244;2022-12-07T05:22:38;2.60;99.90
41944;DHT22;27636;52.610;13.244;2022-12-07T05:27:41;2.70;99.90
41944;DHT22;27636;52.610;13.244;2022-12-07T05:32:44;2.70;99.90
41944;DHT22;27636;52.610;13.244;2022-12-07T05:37:49;2.80;99.90
41944;DHT22;27636;52.610;13.244;2022-12-07T05:42:52;2.90;99.90
41944;DHT22;27636;52.610;13.244;2022-12-07T05:47:55;2.80;99.90
41944;DHT22;27636;52.610;13.244;2022-12-07T05:53:00;2.90;99.90
41944;DHT22;27636;52.610;13.244;2022-12-07T05:58:03;2.90;99.90
41944;DHT22;27636;52.610;13.244;2022-12-07T06:03:25;2.90;99.90
41944;DHT22;27636;52.610;13.244;2022-12-07T06:08:30;3.00;99.90
41944;DHT22;27636;52.610;13.244;2022-12-07T06:13:33;3.00;99.90
41944;DHT22;27636;52.610;13.244;2022-12-07T06:18:38;3.10;99.90
41944;DHT22;27636;52.610;13.244;2022-12-07T06:23:43;3.10;99.90
41944;DHT22;27636;52.610;13.244;2022-12-07T06:28:46;3.20;99.90
41944;DHT22;27636;52.610;13.244;2022-12-07T06:33:50;3.20;99.90
41944;DHT22;27636;52.610;13.244;2022-12-07T06:38:55;3.20;99.90
41944;DHT22;27636;52.610;13.244;2022-12-07T06:43:58;3.20;99.90
41944;DHT22;27636;52.610;13.244;2022-12-07T06:49:02;3.20;99.90
41944;DHT22;27636;52.610;13.244;2022-12-07T06:54:07;3.20;99.90
41944;DHT22;27636;52.610;13.244;2022-12-07T06:59:10;3.20;99.90
41944;DHT22;27636;52.610;13.244;2022-12-07T07:04:13;3.30;99.90
41944;DHT22;27636;52.610;13.244;2022-12-07T07:09:18;3.30;99.90
41944;DHT22;27636;52.610;13.244;2022-12-07T07:14:22;3.30;99.90
41944;DHT22;27636;52.610;13.244;2022-12-07T07:19:25;3.40;99.90
41944;DHT22;27636;52.610;13.244;2022-12-07T07:24:30;3.60;99.90
41944;DHT22;27636;52.610;13.244;2022-12-07T07:29:33;3.50;99.90
41944;DHT22;27636;52.610;13.244;2022-12-07T07:34:36;3.40;99.90
41944;DHT22;27636;52.610;13.244;2022-12-07T07:39:41;3.30;99.90
41944;DHT22;27636;52.610;13.244;2022-12-07T07:44:44;3.40;99.90
41944;DHT22;27636;52.610;13.244;2022-12-07T07:49:48;3.50;99.90
41944;DHT22;27636;52.610;13.244;2022-12-07T07:54:53;3.50;99.90
41944;DHT22;27636;52.610;13.244;2022-12-07T07:59:56;3.50;99.90
41944;DHT22;27636;52.610;13.244;2022-12-07T08:04:59;3.60;99.90
41944;DHT22;27636;52.610;13.244;2022-12-07T08:10:05;3.60;99.90
41944;DHT22;27636;52.610;13.244;2022-12-07T08:15:10;3.60;99.90
41944;DHT22;27636;52.610;13.244;2022-12-07T08:20:14;3.70;99.90
41944;DHT22;27636;52.610;13.244;2022-12-07T08:25:19;3.70;99.90
41944;DHT22;27636;52.610;13.244;2022-12-07T08:30:23;3.80;99.90
41944;DHT22;27636;52.610;13.244;2022-12-07T08:35:26;3.70;99.90
41944;DHT22;27636;52.610;13.244;2022-12-07T08:40:31;3.70;99.90
41944;DHT22;27636;52.610;13.244;2022-12-07T08:45:35;3.70;99.90
41944;DHT22;27636;52.610;13.244;2022-12-07T08:50:39;3.80;99.90
41944;DHT22;27636;52.610;13.244;2022-12-07T08:55:52;3.80;99.90
41944;DHT22;27636;52.610;13.244;2022-12-07T09:00:56;3.90;99.90
41944;DHT22;27636;52.610;13.244;2022-12-07T09:05:59;3.90;99.90
41944;DHT22;27636;52.610;13.244;2022-12-07T09:11:05;4.30;99.90
41944;DHT22;27636;52.610;13.244;2022-12-07T09:16:08;4.20;99.90
41944;DHT22;27636;52.610;13.244;2022-12-07T09:21:12;3.90;99.90
41944;DHT22;27636;52.610;13.244;2022-12-07T09:26:16;3.80;99.90
41944;DHT22;27636;52.610;13.244;2022-12-07T09:31:19;3.70;99.90
41944;DHT22;27636;52.610;13.244;2022-12-07T09:36:28;3.80;99.90
41944;DHT22;27636;52.610;13.244;2022-12-07T09:41:37;3.70;99.90
41944;DHT22;27636;52.610;13.244;2022-12-07T09:46:42;3.70;99.90
41944;DHT22;27636;52.610;13.244;2022-12-07T09:51:47;3.60;99.90
41944;DHT22;27636;52.610;13.244;2022-12-07T09:56:53;3.60;99.90
41944;DHT22;27636;52.610;13.244;2022-12-07T10:02:20;3.60;99.90
41944;DHT22;27636;52.610;13.244;2022-12-07T10:07:26;3.70;99.90
41944;DHT22;27636;52.610;13.244;2022-12-07T10:12:52;3.70;99.90
41944;DHT22;27636;52.610;13.244;2022-12-07T10:17:56;3.60;99.90
41944;DHT22;27636;52.610;13.244;2022-12-07T10:23:02;3.50;99.90
41944;DHT22;27636;52.610;13.244;2022-12-07T10:28:17;3.50;99.90
41944;DHT22;27636;52.610;13.244;2022-12-07T10:33:29;3.60;99.90
41944;DHT22;27636;52.610;13.244;2022-12-07T10:38:32;3.70;99.90
41944;DHT22;27636;52.610;13.244;2022-12-07T10:43:47;3.70;99.90
41944;DHT22;27636;52.610;13.244;2022-12-07T10:48:57;3.70;99.90
41944;DHT22;27636;52.610;13.244;2022-12-07T10:54:10;3.80;99.90
41944;DHT22;27636;52.610;13.244;2022-12-07T10:59:44;3.80;99.90
41944;DHT22;27636;52.610;13.244;2022-12-07T11:04:59;3.90;99.90
41944;DHT22;27636;52.610;13.244;2022-12-07T11:10:10;4.10;99.90
41944;DHT22;27636;52.610;13.244;2022-12-07T11:15:22;4.10;99.90
41944;DHT22;27636;52.610;13.244;2022-12-07T11:20:39;4.10;99.90
41944;DHT22;27636;52.610;13.244;2022-12-07T11:25:51;4.20;99.90
41944;DHT22;27636;52.610;13.244;2022-12-07T11:31:03;4.30;99.90
41944;DHT22;27636;52.610;13.244;2022-12-07T11:36:23;4.40;99.90
41944;DHT22;27636;52.610;13.244;2022-12-07T11:41:38;4.50;99.90
41944;DHT22;27636;52.610;13.244;2022-12-07T11:46:49;4.30;99.90
41944;DHT22;27636;52.610;13.244;2022-12-07T11:51:57;4.20;99.90
41944;DHT22;27636;52.610;13.244;2022-12-07T11:57:09;4.30;99.90
41944;DHT22;27636;52.610;13.244;2022-12-07T12:02:29;4.50;99.90
41944;DHT22;27636;52.610;13.244;2022-12-07T12:07:36;4.60;99.90
41944;DHT22;27636;52.610;13.244;2022-12-07T12:13:24;4.70;99.90
41944;DHT22;27636;52.610;13.244;2022-12-07T12:19:04;4.80;99.90
41944;DHT22;27636;52.610;13.244;2022-12-07T12:24:17;4.80;99.90
41944;DHT22;27636;52.610;13.244;2022-12-07T12:29:25;4.90;99.90
41944;DHT22;27636;52.610;13.244;2022-12-07T12:34:37;4.80;99.90
41944;DHT22;27636;52.610;13.244;2022-12-07T12:45:26;4.70;99.90
41944;DHT22;27636;52.610;13.244;2022-12-07T12:50:33;4.70;99.90
41944;DHT22;27636;52.610;13.244;2022-12-07T12:56:01;4.60;99.90
41944;DHT22;27636;52.610;13.244;2022-12-07T13:06:49;4.50;99.90
41944;DHT22;27636;52.610;13.244;2022-12-07T13:12:00;4.60;99.90
41944;DHT22;27636;52.610;13.244;2022-12-07T13:17:04;4.60;99.90
41944;DHT22;27636;52.610;13.244;2022-12-07T13:22:37;4.40;99.90
41944;DHT22;27636;52.610;13.244;2022-12-07T13:27:56;4.40;99.90
41944;DHT22;27636;52.610;13.244;2022-12-07T13:33:00;4.30;99.90
41944;DHT22;27636;52.610;13.244;2022-12-07T13:38:21;4.20;99.90
41944;DHT22;27636;52.610;13.244;2022-12-07T13:43:25;4.40;99.90
41944;DHT22;27636;52.610;13.244;2022-12-07T13:48:32;4.40;99.90
41944;DHT22;27636;52.610;13.244;2022-12-07T13:53:46;4.30;99.90
41944;DHT22;27636;52.610;13.244;2022-12-07T13:58:49;4.40;99.90
41944;DHT22;27636;52.610;13.244;2022-12-07T14:03:53;4.40;99.90
41944;DHT22;27636;52.610;13.244;2022-12-07T14:09:17;4.20;99.90
41944;DHT22;27636;52.610;13.244;2022-12-07T14:14:23;4.40;99.90
41944;DHT22;27636;52.610;13.244;2022-12-07T14:19:51;4.40;99.90
41944;DHT22;27636;52.610;13.244;2022-12-07T14:25:09;4.30;99.90
41944;DHT22;27636;52.610;13.244;2022-12-07T14:30:16;4.30;99.90
41944;DHT22;27636;52.610;13.244;2022-12-07T14:35:20;4.30;99.90
41944;DHT22;27636;52.610;13.244;2022-12-07T14:40:27;4.20;99.90
41944;DHT22;27636;52.610;13.244;2022-12-07T14:45:30;4.20;99.90
41944;DHT22;27636;52.610;13.244;2022-12-07T14:50:37;4.00;99.90
41944;DHT22;27636;52.610;13.244;2022-12-07T14:55:42;3.60;99.90
41944;DHT22;27636;52.610;13.244;2022-12-07T15:00:46;3.70;99.90
41944;DHT22;27636;52.610;13.244;2022-12-07T15:05:50;3.50;99.90
41944;DHT22;27636;52.610;13.244;2022-12-07T15:10:55;3.50;99.90
41944;DHT22;27636;52.610;13.244;2022-12-07T15:15:58;3.50;99.90
41944;DHT22;27636;52.610;13.244;2022-12-07T15:21:02;3.50;99.90
41944;DHT22;27636;52.610;13.244;2022-12-07T15:26:07;3.50;99.90
41944;DHT22;27636;52.610;13.244;2022-12-07T15:31:13;3.40;99.90
41944;DHT22;27636;52.610;13.244;2022-12-07T15:36:37;3.20;99.90
41944;DHT22;27636;52.610;13.244;2022-12-07T15:41:41;3.30;99.90
41944;DHT22;27636;52.610;13.244;2022-12-07T15:46:45;3.40;99.90
41944;DHT22;27636;52.610;13.244;2022-12-07T15:51:48;3.40;99.90
41944;DHT22;27636;52.610;13.244;2022-12-07T15:56:53;3.30;99.90
41944;DHT22;27636;52.610;13.244;2022-12-07T16:01:57;3.50;99.90
41944;DHT22;27636;52.610;13.244;2022-12-07T16:07:01;3.50;99.90
41944;DHT22;27636;52.610;13.244;2022-12-07T16:12:06;3.40;99.90
41944;DHT22;27636;52.610;13.244;2022-12-07T16:17:10;3.30;99.90
41944;DHT22;27636;52.610;13.244;2022-12-07T16:22:13;3.10;99.90
41944;DHT22;27636;52.610;13.244;2022-12-07T16:27:18;2.90;99.90
41944;DHT22;27636;52.610;13.244;2022-12-07T16:32:21;2.80;99.90
41944;DHT22;27636;52.610;13.244;2022-12-07T16:37:25;2.60;99.90
41944;DHT22;27636;52.610;13.244;2022-12-07T16:42:31;2.50;99.90
41944;DHT22;27636;52.610;13.244;2022-12-07T16:47:37;2.30;99.90
41944;DHT22;27636;52.610;13.244;2022-12-07T16:52:40;2.20;99.90
41944;DHT22;27636;52.610;13.244;2022-12-07T16:57:45;2.30;99.90
41944;DHT22;27636;52.610;13.244;2022-12-07T17:02:48;2.10;99.90
41944;DHT22;27636;52.610;13.244;2022-12-07T17:07:51;2.10;99.90
41944;DHT22;27636;52.610;13.244;2022-12-07T17:12:56;2.20;99.90
41944;DHT22;27636;52.610;13.244;2022-12-07T17:18:00;2.10;99.90
41944;DHT22;27636;52.610;13.244;2022-12-07T17:23:03;2.00;99.90
41944;DHT22;27636;52.610;13.244;2022-12-07T17:28:08;1.90;99.90
41944;DHT22;27636;52.610;13.244;2022-12-07T17:33:11;1.80;99.90
41944;DHT22;27636;52.610;13.244;2022-12-07T17:38:15;1.80;99.90
41944;DHT22;27636;52.610;13.244;2022-12-07T17:43:20;1.80;99.90
41944;DHT22;27636;52.610;13.244;2022-12-07T17:48:23;1.80;99.90
41944;DHT22;27636;52.610;13.244;2022-12-07T17:53:27;1.80;99.90
41944;DHT22;27636;52.610;13.244;2022-12-07T17:58:33;1.60;99.90
41944;DHT22;27636;52.610;13.244;2022-12-07T18:03:36;1.60;99.90
41944;DHT22;27636;52.610;13.244;2022-12-07T18:08:40;1.40;99.90
41944;DHT22;27636;52.610;13.244;2022-12-07T18:13:45;1.20;99.90
41944;DHT22;27636;52.610;13.244;2022-12-07T18:18:49;1.30;99.90
41944;DHT22;27636;52.610;13.244;2022-12-07T18:23:58;1.20;99.90
41944;DHT22;27636;52.610;13.244;2022-12-07T18:29:07;1.10;99.90
41944;DHT22;27636;52.610;13.244;2022-12-07T18:34:12;1.10;99.90
41944;DHT22;27636;52.610;13.244;2022-12-07T18:39:17;0.90;99.90
41944;DHT22;27636;52.610;13.244;2022-12-07T18:44:22;1.10;99.90
41944;DHT22;27636;52.610;13.244;2022-12-07T18:49:25;1.00;99.90
41944;DHT22;27636;52.610;13.244;2022-12-07T18:54:29;1.00;99.90
41944;DHT22;27636;52.610;13.244;2022-12-07T18:59:33;1.00;99.90
41944;DHT22;27636;52.610;13.244;2022-12-07T19:04:49;0.80;99.90
41944;DHT22;27636;52.610;13.244;2022-12-07T19:09:52;0.80;99.90
41944;DHT22;27636;52.610;13.244;2022-12-07T19:14:57;0.40;99.90
41944;DHT22;27636;52.610;13.244;2022-12-07T19:20:02;0.40;99.90
41944;DHT22;27636;52.610;13.244;2022-12-07T19:25:08;0.50;99.90
41944;DHT22;27636;52.610;13.244;2022-12-07T19:30:14;0.50;99.90
41944;DHT22;27636;52.610;13.244;2022-12-07T19:35:19;0.30;99.90
41944;DHT22;27636;52.610;13.244;2022-12-07T19:40:23;0.00;99.90
41944;DHT22;27636;52.610;13.244;2022-12-07T19:45:28;-0.10;99.90
41944;DHT22;27636;52.610;13.244;2022-12-07T19:50:35;-0.10;99.90
41944;DHT22;27636;52.610;13.244;2022-12-07T19:55:38;-0.10;99.90
41944;DHT22;27636;52.610;13.244;2022-12-07T20:00:43;-0.20;99.90
41944;DHT22;27636;52.610;13.244;2022-12-07T20:05:47;-0.40;99.90
41944;DHT22;27636;52.610;13.244;2022-12-07T20:10:50;-0.40;99.90
41944;DHT22;27636;52.610;13.244;2022-12-07T20:15:56;-0.60;99.90
41944;DHT22;27636;52.610;13.244;2022-12-07T20:21:20;-0.60;99.90
41944;DHT22;27636;52.610;13.244;2022-12-07T20:26:23;-0.60;99.90
41944;DHT22;27636;52.610;13.244;2022-12-07T20:31:27;-0.70;99.90
41944;DHT22;27636;52.610;13.244;2022-12-07T20:36:31;-0.60;99.90
41944;DHT22;27636;52.610;13.244;2022-12-07T20:41:35;-0.40;99.90
41944;DHT22;27636;52.610;13.244;2022-12-07T20:46:59;0.00;99.90
41944;DHT22;27636;52.610;13.244;2022-12-07T20:52:03;0.20;99.90
41944;DHT22;27636;52.610;13.244;2022-12-07T20:57:07;0.00;99.90
41944;DHT22;27636;52.610;13.244;2022-12-07T21:02:12;-0.20;99.90
41944;DHT22;27636;52.610;13.244;2022-12-07T21:07:16;-0.50;99.90
41944;DHT22;27636;52.610;13.244;2022-12-07T21:12:19;-0.60;99.90
41944;DHT22;27636;52.610;13.244;2022-12-07T21:17:23;-0.40;99.90
41944;DHT22;27636;52.610;13.244;2022-12-07T21:22:28;-0.30;99.90
41944;DHT22;27636;52.610;13.244;2022-12-07T21:27:31;-0.50;99.90
41944;DHT22;27636;52.610;13.244;2022-12-07T21:32:37;-0.80;99.90
41944;DHT22;27636;52.610;13.244;2022-12-07T21:37:40;-0.80;99.90
41944;DHT22;27636;52.610;13.244;2022-12-07T21:42:43;-0.90;99.90
41944;DHT22;27636;52.610;13.244;2022-12-07T21:47:48;-0.90;99.90
41944;DHT22;27636;52.610;13.244;2022-12-07T21:52:51;-0.80;99.90
41944;DHT22;27636;52.610;13.244;2022-12-07T21:57:55;-0.70;99.90
41944;DHT22;27636;52.610;13.244;2022-12-07T22:02:59;-0.80;99.90
41944;DHT22;27636;52.610;13.244;2022-12-07T22:08:03;-1.00;99.90
41944;DHT22;27636;52.610;13.244;2022-12-07T22:13:08;-0.80;99.90
41944;DHT22;27636;52.610;13.244;2022-12-07T22:18:12;-0.50;99.90
41944;DHT22;27636;52.610;13.244;2022-12-07T22:23:15;-0.10;99.90
41944;DHT22;27636;52.610;13.244;2022-12-07T22:28:19;0.10;99.90
41944;DHT22;27636;52.610;13.244;2022-12-07T22:33:23;0.20;99.90
41944;DHT22;27636;52.610;13.244;2022-12-07T22:38:27;0.10;99.90
41944;DHT22;27636;52.610;13.244;2022-12-07T22:43:30;0.00;99.90
41944;DHT22;27636;52.610;13.244;2022-12-07T22:48:35;-0.20;99.90
41944;DHT22;27636;52.610;13.244;2022-12-07T22:53:38;-0.30;99.90
41944;DHT22;27636;52.610;13.244;2022-12-07T22:58:41;-0.30;99.90
41944;DHT22;27636;52.610;13.244;2022-12-07T23:03:46;-0.40;99.90
41944;DHT22;27636;52.610;13.244;2022-12-07T23:08:50;-0.50;99.90
41944;DHT22;27636;52.610;13.244;2022-12-07T23:13:53;-0.50;99.90
41944;DHT22;27636;52.610;13.244;2022-12-07T23:18:58;-0.50;99.90
41944;DHT22;27636;52.610;13.244;2022-12-07T23:24:01;-0.30;99.90
41944;DHT22;27636;52.610;13.244;2022-12-07T23:29:04;-0.30;99.90
41944;DHT22;27636;52.610;13.244;2022-12-07T23:34:09;-0.30;99.90
41944;DHT22;27636;52.610;13.244;2022-12-07T23:39:13;-0.30;99.90
41944;DHT22;27636;52.610;13.244;2022-12-07T23:44:16;-0.20;99.90
41944;DHT22;27636;52.610;13.244;2022-12-07T23:49:21;-0.20;99.90
41944;DHT22;27636;52.610;13.244;2022-12-07T23:54:24;0.10;99.90
41944;DHT22;27636;52.610;13.244;2022-12-07T23:59:27;0.00;99.90
